Time;durP1;ratioP1;P1;durP2;ratioP2;P2;SDS_P1;SDS_P2;PMS_P1;PMS_P2;Temp;Humidity;BMP_temperature;BMP_pressure;BME280_temperature;BME280_humidity;BME280_pressure;Samples;Min_cycle;Max_cycle;Signal;HPM_P1;HPM_P2
2021/12/05 00:24:15;;;;;;;0.40;0.40;;;2.80;99.90;;;;;;5103810;28;20478;-66
2021/12/05 00:27:12;;;;;;;0.40;0.40;;;2.70;99.90;;;;;;5103079;28;20434;-67
2021/12/05 00:30:16;;;;;;;0.40;0.40;;;2.80;99.90;;;;;;5102259;28;20494;-66
2021/12/05 00:33:22;;;;;;;0.40;0.40;;;2.80;99.90;;;;;;5095856;28;20536;-66
2021/12/05 00:39:44;;;;;;;0.40;0.40;;;2.90;99.90;;;;;;5094927;28;20470;-66
2021/12/05 00:49:16;;;;;;;0.40;0.40;;;3.00;99.90;;;;;;5093881;28;20827;-66
2021/12/05 00:52:25;;;;;;;0.40;0.40;;;3.00;99.90;;;;;;5093756;28;20410;-66
2021/12/05 01:02:10;;;;;;;0.40;0.40;;;2.90;99.90;;;;;;5031580;28;20466;-67
2021/12/05 01:05:20;;;;;;;0.40;0.40;;;2.90;99.90;;;;;;5092740;28;20418;-66
2021/12/05 01:08:19;;;;;;;0.40;0.40;;;2.80;99.90;;;;;;5086364;28;20519;-66
2021/12/05 01:11:19;;;;;;;0.40;0.40;;;2.80;99.90;;;;;;5094046;28;20407;-66
2021/12/05 01:14:21;;;;;;;0.40;0.40;;;2.80;99.90;;;;;;5096969;28;20426;-67
2021/12/05 01:17:08;;;;;;;0.40;0.40;;;2.80;99.90;;;;;;5095704;28;20429;-66
2021/12/05 01:19:58;;;;;;;0.40;0.40;;;2.80;99.90;;;;;;5094856;28;20842;-66
2021/12/05 01:22:51;;;;;;;0.40;0.40;;;3.50;99.90;;;;;;5095238;28;20427;-66
2021/12/05 01:25:44;;;;;;;0.40;0.40;;;2.80;99.90;;;;;;5094112;28;20509;-66
2021/12/05 01:28:46;;;;;;;0.40;0.40;;;2.80;99.90;;;;;;5094160;28;20989;-66
2021/12/05 01:31:43;;;;;;;1.03;1.03;;;2.90;99.90;;;;;;5094178;28;20418;-66
2021/12/05 01:34:41;;;;;;;0.40;0.40;;;2.90;99.90;;;;;;5093806;28;20423;-66
2021/12/05 01:37:40;;;;;;;0.40;0.40;;;3.00;99.90;;;;;;5113407;28;20433;-67
2021/12/05 01:50:11;;;;;;;0.40;0.40;;;3.10;99.90;;;;;;5113816;28;20440;-66
2021/12/05 01:53:26;;;;;;;0.40;0.40;;;3.10;99.90;;;;;;5115826;28;20429;-66
2021/12/05 01:56:52;;;;;;;0.40;0.40;;;3.10;99.90;;;;;;5116692;28;20460;-66
2021/12/05 02:03:07;;;;;;;1.53;1.53;;;3.10;99.90;;;;;;5114069;28;20414;-66
2021/12/05 02:09:21;;;;;;;0.40;0.40;;;1.80;99.90;;;;;;5112943;28;20805;-67
2021/12/05 02:31:09;;;;;;;0.40;0.40;;;3.00;99.90;;;;;;5105255;28;20482;-66
2021/12/05 02:34:14;;;;;;;0.40;0.40;;;2.90;99.90;;;;;;5111467;28;20426;-67
2021/12/05 02:37:19;;;;;;;1.90;1.83;;;3.00;99.90;;;;;;5103446;28;20436;-67
2021/12/05 02:43:13;;;;;;;0.40;0.40;;;3.00;99.90;;;;;;5123716;28;20418;-67
2021/12/05 02:46:03;;;;;;;0.40;0.40;;;3.00;99.90;;;;;;5111210;28;20414;-66
2021/12/05 02:48:50;;;;;;;0.40;0.40;;;3.00;99.90;;;;;;5112772;28;20498;-66
2021/12/05 02:51:37;;;;;;;0.40;0.40;;;3.00;99.90;;;;;;5113700;28;20426;-67
2021/12/05 02:54:28;;;;;;;0.40;0.40;;;3.00;99.90;;;;;;5112925;28;20426;-67
2021/12/05 02:57:18;;;;;;;0.40;0.40;;;2.90;99.90;;;;;;5105767;28;20426;-66
2021/12/05 03:00:11;;;;;;;0.40;0.40;;;2.90;99.90;;;;;;5105012;28;20413;-67
2021/12/05 03:02:58;;;;;;;1.80;1.70;;;3.00;99.90;;;;;;5108073;28;20429;-67
2021/12/05 03:05:46;;;;;;;0.40;0.40;;;3.00;99.90;;;;;;5109928;28;20444;-66
2021/12/05 03:08:33;;;;;;;0.40;0.40;;;3.00;99.90;;;;;;5111276;28;20434;-67
2021/12/05 03:11:23;;;;;;;0.40;0.40;;;3.00;99.90;;;;;;5110080;28;20456;-67
2021/12/05 03:14:10;;;;;;;0.40;0.40;;;2.60;99.90;;;;;;5112135;28;20414;-66
2021/12/05 03:16:57;;;;;;;0.40;0.40;;;3.00;99.90;;;;;;5117000;28;20421;-66
2021/12/05 03:19:44;;;;;;;0.40;0.40;;;5.00;99.90;;;;;;5115807;28;20458;-66
2021/12/05 03:22:31;;;;;;;1.13;1.13;;;3.00;99.90;;;;;;5116126;28;20422;-67
2021/12/05 03:25:18;;;;;;;0.40;0.40;;;3.10;99.90;;;;;;5114400;28;20423;-67
2021/12/05 03:28:07;;;;;;;0.40;0.40;;;3.10;99.90;;;;;;5117064;28;20451;-67
2021/12/05 03:30:54;;;;;;;0.40;0.40;;;3.10;99.90;;;;;;5116174;28;20410;-66
2021/12/05 03:33:41;;;;;;;0.50;0.50;;;3.00;99.90;;;;;;5115628;28;20472;-67
2021/12/05 03:36:28;;;;;;;0.40;0.40;;;3.10;99.90;;;;;;5109813;28;20433;-66
2021/12/05 03:39:16;;;;;;;0.40;0.40;;;3.10;99.90;;;;;;5116415;28;20470;-66
2021/12/05 03:42:05;;;;;;;0.40;0.40;;;3.10;99.90;;;;;;5117445;28;20482;-66
2021/12/05 03:44:53;;;;;;;2.93;2.77;;;3.10;99.90;;;;;;5091714;28;20420;-66
2021/12/05 03:47:40;;;;;;;1.07;1.07;;;3.10;99.90;;;;;;5082409;28;20427;-66
2021/12/05 03:50:28;;;;;;;0.40;0.40;;;3.10;99.90;;;;;;5078810;28;20423;-66
2021/12/05 03:53:17;;;;;;;0.40;0.40;;;3.10;99.90;;;;;;5077514;28;20438;-66
2021/12/05 03:56:08;;;;;;;0.40;0.40;;;3.00;99.90;;;;;;5075513;28;20424;-66
2021/12/05 03:58:55;;;;;;;0.40;0.40;;;3.10;99.90;;;;;;5076127;28;20483;-66
2021/12/05 04:01:44;;;;;;;0.40;0.40;;;3.10;99.90;;;;;;5075396;28;20427;-66
2021/12/05 04:04:31;;;;;;;0.47;0.47;;;3.10;99.90;;;;;;5076804;28;20474;-66
2021/12/05 04:07:18;;;;;;;0.40;0.40;;;3.10;99.90;;;;;;5076611;28;20947;-67
2021/12/05 04:10:06;;;;;;;0.47;0.47;;;3.20;99.90;;;;;;5075240;28;20424;-66
2021/12/05 04:12:53;;;;;;;0.40;0.40;;;3.20;99.90;;;;;;5075620;28;20419;-66
2021/12/05 04:15:40;;;;;;;0.60;0.60;;;3.20;99.90;;;;;;5075440;28;20422;-66
2021/12/05 04:18:29;;;;;;;0.40;0.40;;;3.20;99.90;;;;;;5074703;28;20837;-66
2021/12/05 04:21:18;;;;;;;0.40;0.40;;;3.10;99.90;;;;;;5075068;28;20426;-66
2021/12/05 04:24:07;;;;;;;0.40;0.40;;;3.20;99.90;;;;;;5073777;28;20426;-66
2021/12/05 04:26:54;;;;;;;0.40;0.40;;;3.20;99.90;;;;;;5075456;28;20787;-67
2021/12/05 04:29:41;;;;;;;0.50;0.50;;;3.20;99.90;;;;;;5074629;28;20975;-66
2021/12/05 04:32:28;;;;;;;0.40;0.40;;;3.20;99.90;;;;;;5073988;28;20436;-66
2021/12/05 04:35:17;;;;;;;0.40;0.40;;;3.20;99.90;;;;;;5073545;28;20446;-66
2021/12/05 04:38:04;;;;;;;0.40;0.40;;;3.20;99.90;;;;;;5090550;28;20442;-66
2021/12/05 04:40:51;;;;;;;0.40;0.40;;;3.20;99.90;;;;;;5093218;28;20414;-66
2021/12/05 04:43:39;;;;;;;0.40;0.40;;;3.30;99.90;;;;;;5094377;28;20427;-66
2021/12/05 04:46:26;;;;;;;0.40;0.40;;;3.30;99.90;;;;;;5094941;28;20423;-66
2021/12/05 04:49:13;;;;;;;0.40;0.40;;;3.30;99.90;;;;;;5094575;28;20434;-66
2021/12/05 04:52:02;;;;;;;0.40;0.40;;;3.30;99.90;;;;;;5093634;28;20492;-66
2021/12/05 04:54:49;;;;;;;0.40;0.40;;;3.30;99.90;;;;;;5092893;28;20415;-66
2021/12/05 04:57:36;;;;;;;0.40;0.40;;;3.40;99.90;;;;;;5093982;28;20422;-66
2021/12/05 05:00:26;;;;;;;1.63;1.53;;;3.40;99.90;;;;;;5093271;28;20880;-66
2021/12/05 05:03:14;;;;;;;0.40;0.40;;;3.40;99.90;;;;;;5093964;28;20430;-67
2021/12/05 05:06:07;;;;;;;0.40;0.40;;;3.40;99.90;;;;;;5093325;28;20414;-66
2021/12/05 05:08:56;;;;;;;0.40;0.40;;;3.40;99.90;;;;;;5093292;28;20446;-66
2021/12/05 05:11:43;;;;;;;0.40;0.40;;;3.40;99.90;;;;;;5094192;28;20422;-66
2021/12/05 05:14:30;;;;;;;0.40;0.40;;;3.40;99.90;;;;;;5093036;28;20423;-66
2021/12/05 05:17:17;;;;;;;0.40;0.40;;;3.40;99.90;;;;;;5093432;28;20536;-66
2021/12/05 05:20:15;;;;;;;0.40;0.40;;;3.50;99.90;;;;;;5093291;28;20461;-66
2021/12/05 05:23:17;;;;;;;0.40;0.40;;;3.50;99.90;;;;;;5109167;28;20431;-66
2021/12/05 05:26:33;;;;;;;0.40;0.40;;;3.50;99.90;;;;;;5105804;28;20482;-66
2021/12/05 05:39:37;;;;;;;0.40;0.40;;;3.10;99.90;;;;;;5092735;28;20465;-66
2021/12/05 05:43:03;;;;;;;0.50;0.50;;;3.10;99.90;;;;;;5092917;28;20418;-66
2021/12/05 05:46:02;;;;;;;0.40;0.40;;;3.00;99.90;;;;;;5093420;28;20419;-66
2021/12/05 05:48:51;;;;;;;0.40;0.40;;;2.90;99.90;;;;;;5093143;28;20470;-66
2021/12/05 05:51:39;;;;;;;0.40;0.40;;;2.90;99.90;;;;;;5093276;28;20430;-66
2021/12/05 05:54:26;;;;;;;0.50;0.50;;;2.90;99.90;;;;;;5093391;28;20429;-66
2021/12/05 05:57:19;;;;;;;0.40;0.40;;;2.60;99.90;;;;;;5092843;28;20422;-66
2021/12/05 06:00:14;;;;;;;0.40;0.40;;;2.30;99.90;;;;;;5093552;28;20458;-66
2021/12/05 06:06:09;;;;;;;0.40;0.40;;;2.80;99.90;;;;;;5093075;28;20418;-66
2021/12/05 06:08:56;;;;;;;0.40;0.40;;;2.90;99.90;;;;;;5096027;28;20977;-66
2021/12/05 06:11:43;;;;;;;0.40;0.40;;;3.00;99.90;;;;;;5092865;28;20426;-66
2021/12/05 06:14:30;;;;;;;0.40;0.40;;;3.00;99.90;;;;;;5092310;28;20414;-66
2021/12/05 06:17:18;;;;;;;0.40;0.40;;;3.00;99.90;;;;;;5093206;28;20437;-66
2021/12/05 06:20:07;;;;;;;0.40;0.40;;;3.00;99.90;;;;;;5092827;28;20459;-66
2021/12/05 06:22:55;;;;;;;0.40;0.40;;;2.90;99.90;;;;;;5093849;28;20415;-66
2021/12/05 06:25:44;;;;;;;0.40;0.40;;;2.80;99.90;;;;;;5093896;28;20465;-66
2021/12/05 06:28:35;;;;;;;0.40;0.40;;;2.70;99.90;;;;;;5093048;28;20520;-66
2021/12/05 06:31:38;;;;;;;0.40;0.40;;;2.70;99.90;;;;;;5093544;28;20442;-66
2021/12/05 06:37:45;;;;;;;0.40;0.40;;;2.60;99.90;;;;;;5092620;28;20440;-66
2021/12/05 06:40:49;;;;;;;0.40;0.40;;;2.60;99.90;;;;;;5092794;28;20477;-66
2021/12/05 06:46:43;;;;;;;0.40;0.40;;;2.50;99.90;;;;;;5069305;28;20418;-66
2021/12/05 06:49:31;;;;;;;0.40;0.40;;;2.50;99.90;;;;;;5093831;28;20441;-66
2021/12/05 06:52:18;;;;;;;0.40;0.40;;;2.50;99.90;;;;;;5097057;28;20427;-66
2021/12/05 06:55:06;;;;;;;0.40;0.40;;;2.60;99.90;;;;;;5096152;28;20938;-66
2021/12/05 06:57:53;;;;;;;0.40;0.40;;;2.70;99.90;;;;;;5096395;28;20500;-66
2021/12/05 07:00:40;;;;;;;0.40;0.40;;;2.70;99.90;;;;;;5096179;28;20520;-66
2021/12/05 07:03:27;;;;;;;0.40;0.40;;;2.80;99.90;;;;;;5096913;28;20987;-66
2021/12/05 07:06:21;;;;;;;0.40;0.40;;;2.90;99.90;;;;;;5097214;28;20421;-66
2021/12/05 07:09:10;;;;;;;0.40;0.40;;;2.90;99.90;;;;;;5096488;28;20434;-66
2021/12/05 07:12:23;;;;;;;0.40;0.40;;;2.30;99.90;;;;;;5097739;28;20488;-67
2021/12/05 07:15:08;;;;;;;0.40;0.40;;;3.20;99.90;;;;;;5097753;28;20433;-66
2021/12/05 07:21:27;;;;;;;0.40;0.40;;;3.30;99.90;;;;;;5096457;28;20654;-67
2021/12/05 07:24:29;;;;;;;0.40;0.40;;;3.20;99.90;;;;;;5096473;28;20476;-67
2021/12/05 07:42:51;;;;;;;0.40;0.40;;;3.40;99.90;;;;;;5096409;28;20474;-67
2021/12/05 07:45:46;;;;;;;0.40;0.40;;;2.70;99.90;;;;;;5097276;28;20426;-67
2021/12/05 07:48:35;;;;;;;0.40;0.40;;;3.50;99.90;;;;;;5096499;28;20443;-67
2021/12/05 07:51:27;;;;;;;0.40;0.40;;;3.50;99.90;;;;;;5096755;28;20921;-67
2021/12/05 07:54:28;;;;;;;0.40;0.40;;;3.60;99.90;;;;;;5096163;28;20509;-67
2021/12/05 07:57:20;;;;;;;0.40;0.40;;;3.70;99.90;;;;;;5096514;28;20437;-67
2021/12/05 08:00:15;;;;;;;0.90;0.90;;;3.70;99.90;;;;;;5095464;28;20493;-68
2021/12/05 08:15:25;;;;;;;0.40;0.40;;;3.90;99.90;;;;;;5095530;28;20418;-68
2021/12/05 08:18:12;;;;;;;0.40;0.40;;;3.90;99.90;;;;;;5094890;28;20484;-66
2021/12/05 08:21:01;;;;;;;0.40;0.40;;;3.90;99.90;;;;;;5096201;28;20484;-67
2021/12/05 08:23:50;;;;;;;0.40;0.40;;;4.00;99.90;;;;;;5095583;28;20426;-67
2021/12/05 08:26:37;;;;;;;0.40;0.40;;;4.00;99.90;;;;;;5097910;28;20422;-67
2021/12/05 08:29:32;;;;;;;0.40;0.40;;;4.00;99.90;;;;;;5095238;28;20450;-66
2021/12/05 08:32:30;;;;;;;0.40;0.40;;;4.00;99.90;;;;;;5095441;28;20926;-66
2021/12/05 08:35:36;;;;;;;0.40;0.40;;;4.10;99.90;;;;;;5096256;28;20831;-66
2021/12/05 08:41:46;;;;;;;0.40;0.40;;;4.10;99.90;;;;;;5091117;28;20487;-67
2021/12/05 08:45:07;;;;;;;0.40;0.40;;;4.00;99.90;;;;;;5075656;28;20714;-67
2021/12/05 09:22:13;;;;;;;0.40;0.40;;;4.40;99.90;;;;;;5094267;28;20508;-66
2021/12/05 09:28:38;;;;;;;0.40;0.40;;;4.30;99.90;;;;;;5097438;28;20447;-66
2021/12/05 10:08:43;;;;;;;0.40;0.40;;;4.40;99.90;;;;;;5143947;22;20548;-69
2021/12/05 10:11:39;;;;;;;0.40;0.40;;;4.40;99.90;;;;;;5091390;28;20415;-68
2021/12/05 10:14:43;;;;;;;0.40;0.40;;;5.80;99.90;;;;;;5092898;28;20506;-69
2021/12/05 10:17:47;;;;;;;0.40;0.40;;;4.40;99.90;;;;;;5091851;28;20414;-69
2021/12/05 10:36:18;;;;;;;0.40;0.40;;;4.50;99.90;;;;;;5069236;28;20790;-68
2021/12/05 10:39:10;;;;;;;0.40;0.40;;;4.60;99.90;;;;;;5069590;28;20538;-68
2021/12/05 10:42:12;;;;;;;2.17;2.00;;;4.50;99.90;;;;;;5069929;28;20846;-69
2021/12/05 10:44:59;;;;;;;0.40;0.40;;;4.50;99.90;;;;;;5051376;28;20467;-68
2021/12/05 10:47:48;;;;;;;0.50;0.50;;;4.50;99.90;;;;;;5049776;28;20943;-69
2021/12/05 10:50:39;;;;;;;0.83;0.83;;;4.50;99.90;;;;;;5048435;28;20421;-69
2021/12/05 10:53:32;;;;;;;0.40;0.40;;;4.50;99.90;;;;;;5049821;28;20809;-67
2021/12/05 10:56:23;;;;;;;0.50;0.50;;;4.50;99.90;;;;;;5048252;28;20435;-69
2021/12/05 10:59:13;;;;;;;0.40;0.40;;;4.50;99.90;;;;;;5049374;28;20463;-67
2021/12/05 11:02:03;;;;;;;0.50;0.50;;;4.60;99.90;;;;;;5049052;28;20505;-68
2021/12/05 11:04:50;;;;;;;0.40;0.40;;;4.70;99.90;;;;;;5048683;28;20811;-70
2021/12/05 11:07:39;;;;;;;0.40;0.40;;;4.70;99.90;;;;;;5035628;28;20440;-70
2021/12/05 11:10:25;;;;;;;0.40;0.40;;;4.80;99.90;;;;;;5035193;28;20480;-69
2021/12/05 11:13:26;;;;;;;0.50;0.50;;;4.90;99.90;;;;;;5035464;28;20428;-69
2021/12/05 11:16:43;;;;;;;0.40;0.40;;;4.90;99.90;;;;;;5035544;28;20428;-69
2021/12/05 11:19:35;;;;;;;0.40;0.40;;;4.90;99.90;;;;;;5035626;28;20452;-69
2021/12/05 11:22:24;;;;;;;0.40;0.40;;;4.80;99.90;;;;;;5035199;28;20421;-68
2021/12/05 11:25:13;;;;;;;0.40;0.40;;;4.70;99.90;;;;;;5035272;28;20469;-69
2021/12/05 11:28:03;;;;;;;0.40;0.40;;;4.50;99.90;;;;;;5034865;28;20425;-69
2021/12/05 11:30:50;;;;;;;0.50;0.50;;;4.50;99.90;;;;;;5034453;28;20456;-69
2021/12/05 11:33:46;;;;;;;0.40;0.40;;;4.50;99.90;;;;;;5034916;28;20421;-69
2021/12/05 11:36:38;;;;;;;0.50;0.50;;;4.40;99.90;;;;;;5035050;28;20543;-69
2021/12/05 11:39:27;;;;;;;0.40;0.40;;;4.40;99.90;;;;;;5034950;28;20438;-69
2021/12/05 11:42:18;;;;;;;0.40;0.40;;;4.40;99.90;;;;;;5035941;28;20428;-69
2021/12/05 11:45:07;;;;;;;0.40;0.40;;;4.40;99.90;;;;;;5055762;28;20455;-70
2021/12/05 11:47:54;;;;;;;0.40;0.40;;;4.50;99.90;;;;;;5056921;28;20835;-69
2021/12/05 11:50:43;;;;;;;0.40;0.40;;;4.50;99.90;;;;;;5054902;28;20755;-69
2021/12/05 11:53:40;;;;;;;0.40;0.40;;;4.60;99.90;;;;;;5055469;28;20459;-68
2021/12/05 11:56:42;;;;;;;0.40;0.40;;;4.50;99.90;;;;;;5054299;28;20919;-69
2021/12/05 11:59:31;;;;;;;0.40;0.40;;;4.60;99.90;;;;;;5054973;28;20459;-69
2021/12/05 12:02:20;;;;;;;0.50;0.50;;;4.40;99.90;;;;;;5063990;28;20424;-68
2021/12/05 12:05:13;;;;;;;0.40;0.40;;;4.40;99.90;;;;;;5063512;28;20872;-69
2021/12/05 12:08:07;;;;;;;0.40;0.40;;;4.30;99.90;;;;;;5056071;28;20428;-69
2021/12/05 12:10:58;;;;;;;0.40;0.40;;;4.30;99.90;;;;;;5055931;28;20422;-69
2021/12/05 12:13:47;;;;;;;1.00;1.00;;;4.30;99.90;;;;;;5054838;28;20419;-69
2021/12/05 12:16:34;;;;;;;0.40;0.40;;;4.10;99.90;;;;;;5054896;28;20416;-68
2021/12/05 12:19:22;;;;;;;0.70;0.70;;;4.10;99.90;;;;;;5055157;28;20581;-69
2021/12/05 12:22:10;;;;;;;0.90;0.90;;;4.10;99.90;;;;;;5054596;28;20831;-69
2021/12/05 12:25:02;;;;;;;1.23;1.23;;;4.10;99.90;;;;;;5054824;28;20989;-69
2021/12/05 12:27:51;;;;;;;0.40;0.40;;;3.80;99.90;;;;;;5053512;28;20444;-68
2021/12/05 12:30:40;;;;;;;0.40;0.40;;;3.80;99.90;;;;;;5053355;28;20433;-68
2021/12/05 12:33:31;;;;;;;0.40;0.40;;;3.80;99.90;;;;;;5054397;28;20429;-68
2021/12/05 12:36:31;;;;;;;0.40;0.40;;;3.80;99.90;;;;;;5053301;28;20432;-69
2021/12/05 12:39:34;;;;;;;0.73;0.73;;;3.80;99.90;;;;;;5053908;28;20448;-70
2021/12/05 12:42:26;;;;;;;0.50;0.50;;;3.80;99.90;;;;;;5052273;28;20432;-69
2021/12/05 12:45:18;;;;;;;6.93;1.47;;;3.90;99.90;;;;;;5036442;28;20480;-71
2021/12/05 12:48:12;;;;;;;7.00;2.97;;;3.80;99.90;;;;;;5034758;28;20424;-70
2021/12/05 12:50:59;;;;;;;0.40;0.40;;;3.50;99.90;;;;;;5034305;28;20425;-68
2021/12/05 12:53:54;;;;;;;2.60;2.20;;;3.50;99.90;;;;;;5034125;28;20428;-68
2021/12/05 12:56:43;;;;;;;0.50;0.50;;;3.60;99.90;;;;;;5034722;28;20417;-70
2021/12/05 12:59:35;;;;;;;0.40;0.40;;;3.80;99.90;;;;;;5032661;28;20460;-68
2021/12/05 13:02:31;;;;;;;0.40;0.40;;;3.60;99.90;;;;;;5033911;28;20425;-68
2021/12/05 13:05:40;;;;;;;2.60;1.77;;;4.00;99.90;;;;;;5033895;28;21000;-68
2021/12/05 13:11:47;;;;;;;0.40;0.40;;;4.20;99.90;;;;;;5033578;28;20425;-69
2021/12/05 13:15:03;;;;;;;0.40;0.40;;;4.30;99.90;;;;;;5034175;28;20417;-68
2021/12/05 13:17:53;;;;;;;0.40;0.40;;;4.20;99.90;;;;;;5033369;28;20437;-68
2021/12/05 13:20:52;;;;;;;0.40;0.40;;;4.20;99.90;;;;;;5033543;28;20432;-68
2021/12/05 13:23:42;;;;;;;0.40;0.40;;;4.10;99.90;;;;;;5033500;28;20425;-68
2021/12/05 13:26:38;;;;;;;0.40;0.40;;;4.00;99.90;;;;;;5033188;28;21016;-68
2021/12/05 13:29:27;;;;;;;1.67;1.60;;;3.90;99.90;;;;;;5033198;28;20532;-68
2021/12/05 13:32:21;;;;;;;0.40;0.40;;;3.90;99.90;;;;;;5033403;28;20786;-68
2021/12/05 13:35:11;;;;;;;0.40;0.40;;;3.70;99.90;;;;;;5033358;28;20424;-68
2021/12/05 13:38:00;;;;;;;0.40;0.40;;;3.60;99.90;;;;;;5033136;28;20432;-68
2021/12/05 13:40:47;;;;;;;2.03;1.93;;;3.70;99.90;;;;;;5032899;28;20425;-70
2021/12/05 13:43:34;;;;;;;0.40;0.40;;;3.70;99.90;;;;;;5045658;28;20847;-68
2021/12/05 13:46:33;;;;;;;0.40;0.40;;;3.70;99.90;;;;;;5052668;28;20467;-68
2021/12/05 13:49:38;;;;;;;0.40;0.40;;;3.60;99.90;;;;;;5051532;28;20484;-69
2021/12/05 13:52:31;;;;;;;0.40;0.40;;;3.60;99.90;;;;;;5053247;28;20420;-69
2021/12/05 13:55:36;;;;;;;0.40;0.40;;;3.50;99.90;;;;;;5052063;28;20913;-68
2021/12/05 13:58:28;;;;;;;0.40;0.40;;;3.60;99.90;;;;;;5052367;28;21009;-68
2021/12/05 14:01:21;;;;;;;0.40;0.40;;;3.60;99.90;;;;;;5053094;28;20476;-69
2021/12/05 14:04:24;;;;;;;1.70;1.70;;;3.60;99.90;;;;;;5063386;28;20420;-68
2021/12/05 14:07:12;;;;;;;1.53;1.03;;;3.50;99.90;;;;;;5062787;28;20428;-69
2021/12/05 14:10:00;;;;;;;0.40;0.40;;;3.50;99.90;;;;;;5051090;28;20452;-69
2021/12/05 14:12:47;;;;;;;0.40;0.40;;;3.60;99.90;;;;;;5052106;28;20420;-70
2021/12/05 14:15:34;;;;;;;0.40;0.40;;;3.60;99.90;;;;;;5051672;28;20803;-68
2021/12/05 14:18:22;;;;;;;0.50;0.50;;;3.60;99.90;;;;;;5051470;28;20967;-68
2021/12/05 14:21:14;;;;;;;0.40;0.40;;;3.50;99.90;;;;;;5051811;28;20424;-68
2021/12/05 14:24:03;;;;;;;0.77;0.77;;;3.60;99.90;;;;;;5051558;28;20466;-69
2021/12/05 14:26:51;;;;;;;0.40;0.40;;;3.50;99.90;;;;;;5051503;28;20475;-69
2021/12/05 14:29:41;;;;;;;0.40;0.40;;;3.60;99.90;;;;;;5051286;28;20480;-68
2021/12/05 14:32:30;;;;;;;0.50;0.50;;;3.60;99.90;;;;;;5051460;28;20424;-69
2021/12/05 14:35:20;;;;;;;0.40;0.40;;;3.60;99.90;;;;;;5051397;28;20553;-69
2021/12/05 14:38:08;;;;;;;0.50;0.50;;;3.40;99.90;;;;;;5051740;28;20490;-69
2021/12/05 14:40:57;;;;;;;0.40;0.40;;;3.30;99.90;;;;;;5052131;28;20424;-69
2021/12/05 14:43:56;;;;;;;0.50;0.50;;;3.40;99.90;;;;;;5042172;28;20436;-69
2021/12/05 14:46:52;;;;;;;0.50;0.50;;;3.50;99.90;;;;;;5034769;28;20476;-71
2021/12/05 14:49:42;;;;;;;0.40;0.40;;;3.40;99.90;;;;;;5035508;28;20440;-68
2021/12/05 14:52:32;;;;;;;2.10;1.33;;;3.30;99.90;;;;;;5034499;28;20785;-68
2021/12/05 14:55:21;;;;;;;0.40;0.40;;;3.30;99.90;;;;;;5034860;28;20424;-69
2021/12/05 14:58:14;;;;;;;1.07;0.97;;;3.30;99.90;;;;;;5036068;28;20441;-69
2021/12/05 15:01:01;;;;;;;0.40;0.40;;;3.30;99.90;;;;;;5034538;28;20420;-69
2021/12/05 15:03:52;;;;;;;0.50;0.50;;;3.40;99.90;;;;;;5035085;28;20429;-68
2021/12/05 15:06:43;;;;;;;0.40;0.40;;;5.50;99.90;;;;;;5049093;28;20495;-70
2021/12/05 15:09:34;;;;;;;0.40;0.40;;;3.60;99.90;;;;;;5054222;28;20789;-68
2021/12/05 15:12:25;;;;;;;0.50;0.50;;;3.70;99.90;;;;;;5054946;28;20463;-68
2021/12/05 15:15:14;;;;;;;1.03;1.03;;;3.70;99.90;;;;;;5055076;28;20499;-68
2021/12/05 15:18:01;;;;;;;0.50;0.50;;;3.60;99.90;;;;;;5056040;28;20467;-68
2021/12/05 15:20:48;;;;;;;0.40;0.40;;;3.60;99.90;;;;;;5055879;28;20433;-69
2021/12/05 15:23:40;;;;;;;1.97;1.87;;;3.50;99.90;;;;;;5056069;28;20416;-68
2021/12/05 15:26:33;;;;;;;0.40;0.40;;;3.60;99.90;;;;;;5055159;28;20485;-69
2021/12/05 15:29:20;;;;;;;0.50;0.50;;;3.70;99.90;;;;;;5056643;28;20520;-68
2021/12/05 15:32:16;;;;;;;0.40;0.40;;;3.60;99.90;;;;;;5056345;28;20413;-68
2021/12/05 15:35:05;;;;;;;0.40;0.40;;;3.60;99.90;;;;;;5053869;28;20686;-69
2021/12/05 15:37:54;;;;;;;0.50;0.50;;;3.60;99.90;;;;;;5034241;28;20460;-68
2021/12/05 15:40:45;;;;;;;0.40;0.40;;;3.60;99.90;;;;;;5033851;28;20479;-74
2021/12/05 15:43:34;;;;;;;0.50;0.50;;;3.50;99.90;;;;;;5033595;28;20457;-68
2021/12/05 15:46:27;;;;;;;0.40;0.40;;;3.30;99.90;;;;;;5035211;28;20461;-69
2021/12/05 15:49:15;;;;;;;0.43;0.43;;;3.30;99.90;;;;;;5034728;28;20523;-69
2021/12/05 15:52:02;;;;;;;0.40;0.40;;;3.30;99.90;;;;;;5035020;28;20483;-68
2021/12/05 15:54:50;;;;;;;0.57;0.57;;;3.20;99.90;;;;;;5034423;28;20440;-69
2021/12/05 15:57:39;;;;;;;0.40;0.40;;;3.10;99.90;;;;;;5035243;28;20480;-69
2021/12/05 16:00:30;;;;;;;0.80;0.80;;;3.10;99.90;;;;;;5034236;28;20433;-69
2021/12/05 16:03:20;;;;;;;0.40;0.40;;;3.10;99.90;;;;;;5034692;28;20425;-68
2021/12/05 16:06:09;;;;;;;0.40;0.40;;;3.10;99.90;;;;;;5037439;28;20468;-68
2021/12/05 16:08:57;;;;;;;0.40;0.40;;;3.10;99.90;;;;;;5049070;28;20457;-69
2021/12/05 16:11:45;;;;;;;0.40;0.40;;;3.20;99.90;;;;;;5034741;28;20801;-68
2021/12/05 16:14:35;;;;;;;0.40;0.40;;;3.20;99.90;;;;;;5034365;28;20524;-68
2021/12/05 16:17:25;;;;;;;0.50;0.50;;;3.20;99.90;;;;;;5034748;28;20511;-69
2021/12/05 16:20:22;;;;;;;0.40;0.40;;;3.30;99.90;;;;;;5034059;28;20444;-69
2021/12/05 16:23:21;;;;;;;0.40;0.40;;;3.40;99.90;;;;;;5034892;28;20431;-70
2021/12/05 16:26:11;;;;;;;0.70;0.70;;;3.40;99.90;;;;;;5033867;28;20481;-68
2021/12/05 16:29:01;;;;;;;0.40;0.40;;;3.50;99.90;;;;;;5034157;28;20523;-69
2021/12/05 16:31:53;;;;;;;0.50;0.50;;;3.40;99.90;;;;;;5034533;28;20502;-69
2021/12/05 16:34:43;;;;;;;0.50;0.50;;;3.40;99.90;;;;;;5036083;28;20429;-70
2021/12/05 16:37:31;;;;;;;0.40;0.40;;;3.50;99.90;;;;;;5042937;28;20424;-70
2021/12/05 16:40:20;;;;;;;0.40;0.40;;;3.40;99.90;;;;;;5043041;28;20840;-68
2021/12/05 16:43:10;;;;;;;0.40;0.40;;;3.40;99.90;;;;;;5051895;28;20433;-69
2021/12/05 16:46:05;;;;;;;0.40;0.40;;;3.40;99.90;;;;;;5059814;28;20498;-70
2021/12/05 16:48:53;;;;;;;0.50;0.50;;;3.40;99.90;;;;;;5064401;28;20447;-70
2021/12/05 16:51:47;;;;;;;0.77;0.77;;;3.40;99.90;;;;;;5057821;28;20982;-70
2021/12/05 16:54:37;;;;;;;0.50;0.50;;;3.50;99.90;;;;;;5055062;28;20420;-69
2021/12/05 16:57:29;;;;;;;0.40;0.40;;;3.50;99.90;;;;;;5061608;28;20547;-69
2021/12/05 17:00:20;;;;;;;0.40;0.40;;;3.40;99.90;;;;;;5052590;28;20428;-69
2021/12/05 17:03:09;;;;;;;0.40;0.40;;;3.40;99.90;;;;;;5060029;28;20455;-69
2021/12/05 17:06:02;;;;;;;0.40;0.40;;;3.40;99.90;;;;;;5062453;28;20510;-69
2021/12/05 17:08:49;;;;;;;0.50;0.50;;;3.30;99.90;;;;;;5059705;28;20816;-69
2021/12/05 17:11:37;;;;;;;0.40;0.40;;;3.40;99.90;;;;;;5058775;28;20424;-69
2021/12/05 17:14:26;;;;;;;0.40;0.40;;;3.30;99.90;;;;;;5059060;28;20924;-69
2021/12/05 17:17:14;;;;;;;0.50;0.50;;;3.50;99.90;;;;;;5058681;28;20426;-70
2021/12/05 17:20:19;;;;;;;0.40;0.40;;;3.50;99.90;;;;;;5059954;28;20456;-70
2021/12/05 17:23:08;;;;;;;1.33;1.33;;;3.40;99.90;;;;;;5054177;28;20974;-68
2021/12/05 17:26:05;;;;;;;0.40;0.40;;;3.30;99.90;;;;;;5052046;28;20460;-69
2021/12/05 17:28:56;;;;;;;0.50;0.50;;;3.30;99.90;;;;;;5052876;28;20518;-69
2021/12/05 17:31:47;;;;;;;0.40;0.40;;;3.30;99.90;;;;;;5052005;28;20420;-69
2021/12/05 17:34:38;;;;;;;0.40;0.40;;;3.40;99.90;;;;;;5051803;28;20452;-69
2021/12/05 17:37:27;;;;;;;0.40;0.40;;;3.50;99.90;;;;;;5051879;28;20949;-69
2021/12/05 17:40:15;;;;;;;0.40;0.40;;;3.40;99.90;;;;;;5054787;28;20470;-69
2021/12/05 17:43:02;;;;;;;0.40;0.40;;;6.00;99.90;;;;;;5054892;28;20441;-70
2021/12/05 17:45:49;;;;;;;0.90;0.90;;;3.40;99.90;;;;;;5040171;28;20503;-69
2021/12/05 17:48:38;;;;;;;0.40;0.40;;;3.30;99.90;;;;;;5036553;28;20449;-69
2021/12/05 17:51:27;;;;;;;0.40;0.40;;;3.20;99.90;;;;;;5031984;28;20531;-69
2021/12/05 17:54:22;;;;;;;0.40;0.40;;;3.20;99.90;;;;;;5032958;28;20421;-69
2021/12/05 17:57:13;;;;;;;0.40;0.40;;;3.20;99.90;;;;;;5032572;28;20417;-68
2021/12/05 18:00:12;;;;;;;0.40;0.40;;;3.20;99.90;;;;;;5032360;28;20453;-68
2021/12/05 18:02:59;;;;;;;0.40;0.40;;;3.30;99.90;;;;;;5033157;28;20421;-68
2021/12/05 18:05:49;;;;;;;0.50;0.50;;;3.40;99.90;;;;;;5031810;28;20455;-70
2021/12/05 18:08:36;;;;;;;1.50;1.43;;;3.40;99.90;;;;;;5034787;28;20549;-70
2021/12/05 18:11:24;;;;;;;0.40;0.40;;;3.50;99.90;;;;;;5042751;28;20429;-69
2021/12/05 18:14:12;;;;;;;18.67;4.10;;;3.40;99.90;;;;;;5032316;28;20425;-69
2021/12/05 18:16:59;;;;;;;0.40;0.40;;;3.40;99.90;;;;;;5035824;28;20439;-68
2021/12/05 18:19:46;;;;;;;0.40;0.40;;;3.40;99.90;;;;;;5036415;28;21007;-69
2021/12/05 18:22:35;;;;;;;0.40;0.40;;;3.40;99.90;;;;;;5037070;28;20421;-69
2021/12/05 18:25:23;;;;;;;0.40;0.40;;;3.40;99.90;;;;;;5036945;28;21083;-68
2021/12/05 18:28:10;;;;;;;0.43;0.43;;;3.50;99.90;;;;;;5036349;28;20465;-69
2021/12/05 18:30:58;;;;;;;0.57;0.57;;;3.50;99.90;;;;;;5036871;28;20506;-69
2021/12/05 18:33:47;;;;;;;0.40;0.40;;;3.40;99.90;;;;;;5035776;28;20425;-69
2021/12/05 18:36:38;;;;;;;0.43;0.43;;;3.30;99.90;;;;;;5036622;28;20432;-68
2021/12/05 18:39:29;;;;;;;0.47;0.47;;;3.20;99.90;;;;;;5036306;28;20449;-69
2021/12/05 18:42:17;;;;;;;0.40;0.40;;;3.30;99.90;;;;;;5037961;28;20425;-69
2021/12/05 18:45:07;;;;;;;0.40;0.40;;;3.30;99.90;;;;;;5055086;28;20448;-69
2021/12/05 18:47:54;;;;;;;0.60;0.60;;;3.20;99.90;;;;;;5055591;28;20942;-69
2021/12/05 18:50:43;;;;;;;0.40;0.40;;;3.20;99.90;;;;;;5055744;28;20424;-67
2021/12/05 18:53:30;;;;;;;0.40;0.40;;;3.20;99.90;;;;;;5055580;28;20450;-68